Time;durP1;ratioP1;P1;durP2;ratioP2;P2;SDS_P1;SDS_P2;PMS_P1;PMS_P2;Temp;Humidity;BMP_temperature;BMP_pressure;BME280_temperature;BME280_humidity;BME280_pressure;Samples;Min_cycle;Max_cycle;Signal;HPM_P1;HPM_P2
2022/09/24 00:01:21;;;;;;;4.65;4.10;;;;;;;;;;5078076;28;20036;-73
2022/09/24 00:03:51;;;;;;;4.32;3.90;;;;;;;;;;5059819;28;20138;-72
2022/09/24 00:06:18;;;;;;;5.18;4.13;;;;;;;;;;5062941;28;20044;-73
2022/09/24 00:08:47;;;;;;;4.45;4.05;;;;;;;;;;5066620;28;20040;-72
2022/09/24 00:11:15;;;;;;;5.07;4.60;;;;;;;;;;5079432;28;20055;-72
2022/09/24 00:13:42;;;;;;;4.68;4.28;;;;;;;;;;5074753;28;20093;-72
2022/09/24 00:16:11;;;;;;;6.40;4.20;;;;;;;;;;5038847;28;20499;-71
2022/09/24 00:18:39;;;;;;;5.40;4.47;;;;;;;;;;5079702;28;20139;-72
2022/09/24 00:21:23;;;;;;;7.00;4.38;;;;;;;;;;5078364;28;20048;-71
2022/09/24 00:23:52;;;;;;;5.03;4.22;;;;;;;;;;5055225;28;20044;-72
2022/09/24 00:29:07;;;;;;;4.70;4.28;;;;;;;;;;5059689;28;20250;-72
2022/09/24 00:31:34;;;;;;;5.22;4.70;;;;;;;;;;5062045;28;21187;-72
2022/09/24 00:34:02;;;;;;;4.45;4.05;;;;;;;;;;5074904;28;20047;-72
2022/09/24 00:36:30;;;;;;;6.32;4.03;;;;;;;;;;5080340;28;20047;-72
2022/09/24 00:38:58;;;;;;;4.57;4.18;;;;;;;;;;5080141;28;20590;-71
2022/09/24 00:41:26;;;;;;;5.00;4.60;;;;;;;;;;5079813;28;20044;-71
2022/09/24 00:43:54;;;;;;;4.72;4.00;;;;;;;;;;5075818;28;20043;-72
2022/09/24 00:46:21;;;;;;;5.20;4.70;;;;;;;;;;5045330;28;20212;-71
2022/09/24 00:48:50;;;;;;;4.57;4.13;;;;;;;;;;5076636;28;20042;-72
2022/09/24 00:51:20;;;;;;;5.25;4.07;;;;;;;;;;5059611;28;20048;-72
2022/09/24 00:53:49;;;;;;;4.57;4.18;;;;;;;;;;5078692;28;20040;-72
2022/09/24 00:56:16;;;;;;;4.50;4.20;;;;;;;;;;5080946;28;20048;-72
2022/09/24 00:58:47;;;;;;;5.70;4.10;;;;;;;;;;5061787;28;20507;-72
2022/09/24 01:01:16;;;;;;;4.32;3.92;;;;;;;;;;5078980;28;20051;-72
2022/09/24 01:03:45;;;;;;;4.60;4.20;;;;;;;;;;5060339;28;20052;-72
2022/09/24 01:06:12;;;;;;;6.82;4.20;;;;;;;;;;5075985;28;20051;-72
2022/09/24 01:08:40;;;;;;;3.95;3.65;;;;;;;;;;5060974;28;20067;-72
2022/09/24 01:11:07;;;;;;;3.90;3.60;;;;;;;;;;5077298;28;20060;-72
2022/09/24 01:13:48;;;;;;;4.97;3.97;;;;;;;;;;5047619;28;20427;-72
2022/09/24 01:16:23;;;;;;;6.88;4.93;;;;;;;;;;5065259;28;20056;-72
2022/09/24 01:18:59;;;;;;;4.63;4.20;;;;;;;;;;5081665;28;20488;-72
2022/09/24 01:21:31;;;;;;;4.45;4.15;;;;;;;;;;5082037;28;20522;-72
2022/09/24 01:23:59;;;;;;;;;;;;;;;;;;5078242;28;20040;-72
2022/09/24 01:26:37;;;;;;;4.15;3.80;;;;;;;;;;5077825;28;19927;-71
2022/09/24 01:29:23;;;;;;;3.83;3.53;;;;;;;;;;5075661;28;20140;-72
2022/09/24 01:31:59;;;;;;;4.43;4.00;;;;;;;;;;5076504;28;20040;-72
2022/09/24 01:34:29;;;;;;;4.60;3.78;;;;;;;;;;5060699;28;20055;-71
2022/09/24 01:36:58;;;;;;;4.57;3.88;;;;;;;;;;5081707;28;20520;-72
2022/09/24 01:39:26;;;;;;;4.40;3.85;;;;;;;;;;5064495;28;20052;-72
2022/09/24 01:41:56;;;;;;;6.55;4.25;;;;;;;;;;5083684;28;20445;-72
2022/09/24 01:44:24;;;;;;;4.75;4.35;;;;;;;;;;5075852;28;20554;-72
2022/09/24 01:46:51;;;;;;;4.75;4.30;;;;;;;;;;5075036;28;20043;-72
2022/09/24 01:49:18;;;;;;;4.43;4.03;;;;;;;;;;5063431;28;20048;-72
2022/09/24 01:51:51;;;;;;;4.25;3.90;;;;;;;;;;5080195;28;20048;-72
2022/09/24 01:54:22;;;;;;;4.05;3.65;;;;;;;;;;5063969;28;20469;-72
2022/09/24 01:56:53;;;;;;;3.53;3.22;;;;;;;;;;5050913;28;20084;-71
2022/09/24 01:59:40;;;;;;;5.55;4.30;;;;;;;;;;5077188;28;20123;-72
2022/09/24 02:02:34;;;;;;;4.63;4.22;;;;;;;;;;5064910;28;20051;-72
2022/09/24 02:05:22;;;;;;;5.20;4.30;;;;;;;;;;5080954;28;20048;-72
2022/09/24 02:07:57;;;;;;;4.57;4.28;;;;;;;;;;5064996;28;20204;-72
2022/09/24 02:10:27;;;;;;;5.05;4.45;;;;;;;;;;5067012;28;20101;-72
2022/09/24 02:12:58;;;;;;;6.38;4.40;;;;;;;;;;5043308;28;20153;-72
2022/09/24 02:15:28;;;;;;;4.20;3.90;;;;;;;;;;5074407;28;20044;-72
2022/09/24 02:18:02;;;;;;;5.00;4.00;;;;;;;;;;5081564;28;20576;-71
2022/09/24 02:20:29;;;;;;;4.63;4.22;;;;;;;;;;5082639;28;20433;-71
2022/09/24 02:22:57;;;;;;;9.23;4.20;;;;;;;;;;5066470;28;20400;-72
2022/09/24 02:25:27;;;;;;;5.32;4.45;;;;;;;;;;5083618;28;20168;-72
2022/09/24 02:27:55;;;;;;;4.93;4.43;;;;;;;;;;5063132;28;20193;-72
2022/09/24 02:30:22;;;;;;;4.47;4.07;;;;;;;;;;5063283;28;20712;-72
2022/09/24 02:32:50;;;;;;;4.00;3.60;;;;;;;;;;5061860;28;20235;-72
2022/09/24 02:35:17;;;;;;;4.88;4.47;;;;;;;;;;5065024;28;20052;-72
2022/09/24 02:37:46;;;;;;;7.43;4.72;;;;;;;;;;5076990;28;20040;-73
2022/09/24 02:40:14;;;;;;;7.00;4.40;;;;;;;;;;5080121;28;20052;-72
2022/09/24 02:42:42;;;;;;;7.03;4.53;;;;;;;;;;5065525;28;20032;-71
2022/09/24 02:45:11;;;;;;;4.68;4.28;;;;;;;;;;5083366;28;20255;-72
2022/09/24 02:47:38;;;;;;;4.85;4.40;;;;;;;;;;5064591;28;20032;-72
2022/09/24 02:50:06;;;;;;;5.93;5.30;;;;;;;;;;5087345;28;20044;-72
2022/09/24 02:52:33;;;;;;;4.68;4.38;;;;;;;;;;5069956;28;20410;-72
2022/09/24 02:55:01;;;;;;;6.22;4.30;;;;;;;;;;5048849;28;20055;-72
2022/09/24 02:57:28;;;;;;;7.57;4.45;;;;;;;;;;5084217;28;20040;-72
2022/09/24 02:59:56;;;;;;;5.05;4.47;;;;;;;;;;5067035;28;20560;-72
2022/09/24 03:02:23;;;;;;;6.43;4.30;;;;;;;;;;5050381;28;20043;-71
2022/09/24 03:04:50;;;;;;;4.90;4.50;;;;;;;;;;5086469;28;20503;-71
2022/09/24 03:07:20;;;;;;;4.45;4.15;;;;;;;;;;5061907;28;20073;-72
2022/09/24 03:09:47;;;;;;;5.28;4.78;;;;;;;;;;5063003;28;20385;-72
2022/09/24 03:12:15;;;;;;;5.00;4.55;;;;;;;;;;5062741;28;20418;-72
2022/09/24 03:14:42;;;;;;;4.80;4.32;;;;;;;;;;5072020;28;20051;-71
2022/09/24 03:17:09;;;;;;;4.88;4.45;;;;;;;;;;5049790;28;20465;-71
2022/09/24 03:19:36;;;;;;;5.20;4.63;;;;;;;;;;5086537;28;20361;-72
2022/09/24 03:22:04;;;;;;;4.60;4.20;;;;;;;;;;5084661;28;20036;-72
2022/09/24 03:24:31;;;;;;;4.63;4.22;;;;;;;;;;5066313;28;20313;-71
2022/09/24 03:26:58;;;;;;;4.30;3.75;;;;;;;;;;5065092;28;20093;-72
2022/09/24 03:32:12;;;;;;;5.40;4.90;;;;;;;;;;5094286;28;20059;-71
2022/09/24 03:34:39;;;;;;;4.88;4.45;;;;;;;;;;5085297;28;20093;-71
2022/09/24 03:37:07;;;;;;;4.63;4.13;;;;;;;;;;5063709;28;20044;-72
2022/09/24 03:39:34;;;;;;;4.28;3.97;;;;;;;;;;5055608;28;20077;-72
2022/09/24 03:42:02;;;;;;;4.28;3.97;;;;;;;;;;5077119;28;20503;-72
2022/09/24 03:44:29;;;;;;;6.10;4.07;;;;;;;;;;5062328;28;20343;-71
2022/09/24 03:46:56;;;;;;;4.93;4.30;;;;;;;;;;5068360;28;20047;-72
2022/09/24 03:49:24;;;;;;;4.10;3.78;;;;;;;;;;5080490;28;20036;-72
2022/09/24 03:51:52;;;;;;;5.38;4.88;;;;;;;;;;5086928;28;20131;-71
2022/09/24 03:54:19;;;;;;;4.82;4.32;;;;;;;;;;5066957;28;20733;-72
2022/09/24 03:56:46;;;;;;;4.53;4.13;;;;;;;;;;5066846;28;20681;-72
2022/09/24 03:59:13;;;;;;;5.00;4.50;;;;;;;;;;5080330;28;20048;-72
2022/09/24 04:01:41;;;;;;;6.32;4.40;;;;;;;;;;5047498;28;20189;-72
2022/09/24 04:04:09;;;;;;;8.65;4.88;;;;;;;;;;5064415;28;20105;-73
2022/09/24 04:06:36;;;;;;;6.00;4.90;;;;;;;;;;5047780;28;20032;-72
2022/09/24 04:09:03;;;;;;;5.38;4.97;;;;;;;;;;5054474;28;20041;-72
2022/09/24 04:11:34;;;;;;;6.32;5.07;;;;;;;;;;5068006;28;20051;-73
2022/09/24 04:14:01;;;;;;;4.53;4.15;;;;;;;;;;5060992;28;20041;-73
2022/09/24 04:16:28;;;;;;;5.22;4.72;;;;;;;;;;5066352;28;20040;-72
2022/09/24 04:18:56;;;;;;;5.93;4.65;;;;;;;;;;5067131;28;20063;-71
2022/09/24 04:21:23;;;;;;;6.95;4.95;;;;;;;;;;5086604;28;20040;-72
2022/09/24 04:23:50;;;;;;;5.25;4.82;;;;;;;;;;5086119;28;20330;-73
2022/09/24 04:26:19;;;;;;;5.50;4.35;;;;;;;;;;5074766;28;20036;-73
2022/09/24 04:28:49;;;;;;;7.13;4.85;;;;;;;;;;5083786;28;20032;-72
2022/09/24 04:31:16;;;;;;;5.78;5.18;;;;;;;;;;5077178;28;20060;-72
2022/09/24 04:33:43;;;;;;;5.28;4.28;;;;;;;;;;5066944;28;20537;-72
2022/09/24 04:36:11;;;;;;;5.65;4.93;;;;;;;;;;5083260;28;20052;-72
2022/09/24 04:38:38;;;;;;;4.78;4.38;;;;;;;;;;5086591;28;20069;-73
2022/09/24 04:41:06;;;;;;;6.13;5.03;;;;;;;;;;5068452;28;20544;-73
2022/09/24 04:43:35;;;;;;;5.03;4.55;;;;;;;;;;5081881;28;22592;-73
2022/09/24 04:46:03;;;;;;;5.75;4.72;;;;;;;;;;5082680;28;20028;-73
2022/09/24 04:48:31;;;;;;;7.30;5.25;;;;;;;;;;5076419;28;20555;-72
2022/09/24 04:50:58;;;;;;;5.63;4.78;;;;;;;;;;5082036;28;20043;-73
2022/09/24 04:53:26;;;;;;;5.85;5.28;;;;;;;;;;5085628;28;20035;-72
2022/09/24 04:55:53;;;;;;;8.60;5.13;;;;;;;;;;5058908;28;20043;-73
2022/09/24 04:58:20;;;;;;;6.18;4.90;;;;;;;;;;5072174;28;20122;-73
2022/09/24 05:00:47;;;;;;;6.75;5.07;;;;;;;;;;5072907;28;20569;-73
2022/09/24 05:03:15;;;;;;;7.75;4.78;;;;;;;;;;5061271;28;20560;-73
2022/09/24 05:05:43;;;;;;;4.88;4.47;;;;;;;;;;5043195;28;20339;-71
2022/09/24 05:08:10;;;;;;;5.40;4.90;;;;;;;;;;5078867;28;20040;-72
2022/09/24 05:10:37;;;;;;;5.88;5.28;;;;;;;;;;5065120;28;20040;-73
2022/09/24 05:13:05;;;;;;;6.53;5.30;;;;;;;;;;5056849;28;20071;-72
2022/09/24 05:15:32;;;;;;;6.85;5.68;;;;;;;;;;5070908;28;20055;-73
2022/09/24 05:17:59;;;;;;;6.82;5.53;;;;;;;;;;5067038;28;20329;-72
2022/09/24 05:20:27;;;;;;;6.18;5.53;;;;;;;;;;5085053;28;20051;-72
2022/09/24 05:22:54;;;;;;;6.85;5.38;;;;;;;;;;5066996;28;20051;-72
2022/09/24 05:25:22;;;;;;;8.80;6.30;;;;;;;;;;5072845;28;20040;-72
2022/09/24 05:27:50;;;;;;;10.35;6.95;;;;;;;;;;5062155;28;20445;-73
2022/09/24 05:30:19;;;;;;;7.07;5.53;;;;;;;;;;5077448;28;20043;-73
2022/09/24 05:32:53;;;;;;;8.63;5.85;;;;;;;;;;5054366;28;20478;-73
2022/09/24 05:35:21;;;;;;;8.13;6.32;;;;;;;;;;5065640;28;20040;-71
2022/09/24 05:37:52;;;;;;;8.25;5.85;;;;;;;;;;5079684;28;20119;-72
2022/09/24 05:43:05;;;;;;;5.75;5.25;;;;;;;;;;5075091;28;20760;-73
2022/09/24 05:45:32;;;;;;;6.43;5.82;;;;;;;;;;5080425;28;20051;-71
2022/09/24 05:48:00;;;;;;;5.05;4.57;;;;;;;;;;5076844;23;20048;-68
2022/09/24 05:50:27;;;;;;;5.88;5.38;;;;;;;;;;5068773;28;20040;-68
2022/09/24 05:52:55;;;;;;;6.68;5.60;;;;;;;;;;5055267;28;20586;-68
2022/09/24 05:55:22;;;;;;;5.30;4.88;;;;;;;;;;5070126;28;20082;-69
2022/09/24 05:57:49;;;;;;;5.85;5.25;;;;;;;;;;5074343;28;20040;-68
2022/09/24 06:00:16;;;;;;;7.82;5.88;;;;;;;;;;5063593;28;20083;-68
2022/09/24 06:02:44;;;;;;;6.57;5.97;;;;;;;;;;5065426;28;20499;-67
2022/09/24 06:05:12;;;;;;;6.13;5.40;;;;;;;;;;5065182;28;20760;-68
2022/09/24 06:07:39;;;;;;;7.20;5.60;;;;;;;;;;5062722;28;20040;-69
2022/09/24 06:10:07;;;;;;;8.07;6.72;;;;;;;;;;5073056;28;20503;-68
2022/09/24 06:12:34;;;;;;;6.47;5.88;;;;;;;;;;5067982;28;20133;-68
2022/09/24 06:15:02;;;;;;;6.60;5.63;;;;;;;;;;5069229;28;20126;-69
2022/09/24 06:17:30;;;;;;;8.32;6.13;;;;;;;;;;5071058;28;20514;-69
2022/09/24 06:19:58;;;;;;;9.85;7.63;;;;;;;;;;5070710;28;20044;-69
2022/09/24 06:22:25;;;;;;;7.63;6.53;;;;;;;;;;5069924;28;20043;-68
2022/09/24 06:24:55;;;;;;;7.85;6.15;;;;;;;;;;5069784;28;20043;-69
2022/09/24 06:27:23;;;;;;;6.43;5.80;;;;;;;;;;5063960;28;20043;-68
2022/09/24 06:29:50;;;;;;;7.05;6.35;;;;;;;;;;5081422;28;20113;-69
2022/09/24 06:32:18;;;;;;;6.40;5.80;;;;;;;;;;5068121;28;20423;-68
2022/09/24 06:34:46;;;;;;;7.50;6.80;;;;;;;;;;5073890;28;20121;-67
2022/09/24 06:37:14;;;;;;;7.15;6.28;;;;;;;;;;5065957;28;20040;-68
2022/09/24 06:39:42;;;;;;;6.05;5.55;;;;;;;;;;5073532;28;20416;-67
2022/09/24 06:42:09;;;;;;;6.78;6.10;;;;;;;;;;5077875;28;20415;-69
2022/09/24 06:44:36;;;;;;;7.72;5.93;;;;;;;;;;5078502;28;20058;-68
2022/09/24 06:47:04;;;;;;;6.00;5.28;;;;;;;;;;5052277;28;20082;-68
2022/09/24 06:49:31;;;;;;;6.22;5.47;;;;;;;;;;5079563;28;20040;-68
2022/09/24 06:52:00;;;;;;;5.63;5.13;;;;;;;;;;5083490;28;20028;-69
2022/09/24 06:54:28;;;;;;;5.18;4.50;;;;;;;;;;5073872;28;20044;-69
2022/09/24 06:56:55;;;;;;;6.07;5.57;;;;;;;;;;5067082;28;20419;-67
2022/09/24 06:59:22;;;;;;;6.05;4.95;;;;;;;;;;5081935;28;20129;-67
2022/09/24 07:01:50;;;;;;;5.88;5.15;;;;;;;;;;5077078;28;20093;-68
2022/09/24 07:04:17;;;;;;;6.22;5.63;;;;;;;;;;5075034;28;20507;-68
2022/09/24 07:09:31;;;;;;;6.47;5.88;;;;;;;;;;5087248;28;20037;-70
2022/09/24 07:12:01;;;;;;;6.65;5.82;;;;;;;;;;5085558;28;20046;-68
2022/09/24 07:14:29;;;;;;;5.95;5.32;;;;;;;;;;5064906;28;20097;-69
2022/09/24 07:16:56;;;;;;;5.78;5.35;;;;;;;;;;5071724;28;20044;-68
2022/09/24 07:19:24;;;;;;;29.77;21.65;;;;;;;;;;5056440;28;20257;-68
2022/09/24 07:21:51;;;;;;;9.02;6.50;;;;;;;;;;5071911;28;20461;-69
2022/09/24 07:24:18;;;;;;;6.00;5.22;;;;;;;;;;5073071;28;20083;-68
2022/09/24 07:26:46;;;;;;;9.02;8.13;;;;;;;;;;5077984;28;20089;-69
2022/09/24 07:29:13;;;;;;;8.98;7.97;;;;;;;;;;5076024;28;20579;-68
2022/09/24 07:31:41;;;;;;;16.98;14.82;;;;;;;;;;5073335;28;20078;-68
2022/09/24 07:34:08;;;;;;;10.95;9.55;;;;;;;;;;5067931;28;20334;-68
2022/09/24 07:36:36;;;;;;;9.50;8.48;;;;;;;;;;5079657;28;20041;-68
2022/09/24 07:39:04;;;;;;;5.28;4.88;;;;;;;;;;5077501;28;20044;-67
2022/09/24 07:41:32;;;;;;;6.10;4.85;;;;;;;;;;5080780;28;20056;-67
2022/09/24 07:44:07;;;;;;;5.93;5.28;;;;;;;;;;5075173;28;20094;-68
2022/09/24 07:46:34;;;;;;;4.90;4.60;;;;;;;;;;5056965;28;20393;-69
2022/09/24 07:49:02;;;;;;;8.50;7.75;;;;;;;;;;5069768;28;22122;-68
2022/09/24 07:51:30;;;;;;;14.38;11.27;;;;;;;;;;5067175;28;20475;-68
2022/09/24 07:53:57;;;;;;;7.53;6.65;;;;;;;;;;5071742;28;20499;-68
2022/09/24 07:56:25;;;;;;;8.48;7.40;;;;;;;;;;5078453;28;20071;-69
2022/09/24 07:58:52;;;;;;;6.22;5.72;;;;;;;;;;5080148;28;20135;-72
2022/09/24 08:01:20;;;;;;;5.55;5.05;;;;;;;;;;5084151;28;20055;-72
2022/09/24 08:03:47;;;;;;;6.32;5.82;;;;;;;;;;5083446;28;20040;-72
2022/09/24 08:06:15;;;;;;;5.28;4.78;;;;;;;;;;5057680;28;20323;-72
2022/09/24 08:08:42;;;;;;;4.88;4.47;;;;;;;;;;5086608;28;20498;-71
2022/09/24 08:11:12;;;;;;;5.63;4.30;;;;;;;;;;5076247;28;20056;-74
2022/09/24 08:13:39;;;;;;;5.05;4.53;;;;;;;;;;5070008;28;20162;-72
2022/09/24 08:16:06;;;;;;;6.95;4.80;;;;;;;;;;5058622;28;20495;-72
2022/09/24 08:18:34;;;;;;;8.50;4.72;;;;;;;;;;5070012;28;20052;-72
2022/09/24 08:21:07;;;;;;;5.20;4.78;;;;;;;;;;5056498;28;20039;-73
2022/09/24 08:23:35;;;;;;;5.25;4.75;;;;;;;;;;5070720;28;20064;-72
2022/09/24 08:26:02;;;;;;;5.00;4.60;;;;;;;;;;5071669;28;20047;-74
2022/09/24 08:28:30;;;;;;;6.15;5.05;;;;;;;;;;5055391;28;20040;-74
2022/09/24 08:31:01;;;;;;;35.83;28.92;;;;;;;;;;5065221;28;20650;-73
2022/09/24 08:33:30;;;;;;;8.80;7.05;;;;;;;;;;5069632;28;20056;-73
2022/09/24 08:36:02;;;;;;;7.90;5.82;;;;;;;;;;5074121;28;20035;-72
2022/09/24 08:38:29;;;;;;;4.70;4.30;;;;;;;;;;5073438;28;20051;-73
2022/09/24 08:41:02;;;;;;;4.50;4.20;;;;;;;;;;5070125;28;20040;-73
2022/09/24 08:43:50;;;;;;;4.65;4.22;;;;;;;;;;5079184;28;20050;-71
2022/09/24 08:49:23;;;;;;;4.70;4.30;;;;;;;;;;5076856;28;20044;-72
2022/09/24 08:51:58;;;;;;;4.68;4.28;;;;;;;;;;5072872;28;20036;-71
2022/09/24 08:54:27;;;;;;;5.47;4.28;;;;;;;;;;5071531;28;20138;-72
2022/09/24 08:56:55;;;;;;;4.00;3.67;;;;;;;;;;5075115;28;20041;-72
2022/09/24 08:59:29;;;;;;;5.68;5.05;;;;;;;;;;5082280;28;20069;-72
2022/09/24 09:02:20;;;;;;;5.07;4.68;;;;;;;;;;5070400;28;20052;-74
2022/09/24 09:04:57;;;;;;;7.18;4.72;;;;;;;;;;5082530;28;20156;-69
2022/09/24 09:07:28;;;;;;;4.32;3.92;;;;;;;;;;5074976;28;20145;-69
2022/09/24 09:09:56;;;;;;;6.38;5.43;;;;;;;;;;5070613;28;20044;-69
2022/09/24 09:12:26;;;;;;;5.93;4.38;;;;;;;;;;5071959;28;20048;-69
2022/09/24 09:15:02;;;;;;;11.93;10.70;;;;;;;;;;5041468;28;20048;-69
2022/09/24 09:17:29;;;;;;;12.40;10.63;;;;;;;;;;5075547;28;20555;-70
2022/09/24 09:19:58;;;;;;;5.90;5.30;;;;;;;;;;5075195;28;20510;-69
2022/09/24 09:22:27;;;;;;;8.18;4.25;;;;;;;;;;5069031;28;20049;-70
2022/09/24 09:24:58;;;;;;;5.47;3.95;;;;;;;;;;5075979;28;20032;-69
2022/09/24 09:27:30;;;;;;;4.82;3.97;;;;;;;;;;5031612;28;20122;-70
2022/09/24 09:29:58;;;;;;;3.80;3.55;;;;;;;;;;5076686;28;20090;-69
2022/09/24 09:32:26;;;;;;;4.20;3.83;;;;;;;;;;5055393;28;20507;-68
2022/09/24 09:35:02;;;;;;;4.13;3.78;;;;;;;;;;5067552;28;20063;-69
2022/09/24 09:37:53;;;;;;;5.45;3.90;;;;;;;;;;5071938;28;20048;-69
2022/09/24 09:40:41;;;;;;;4.55;4.13;;;;;;;;;;5067032;28;20075;-68
2022/09/24 09:43:09;;;;;;;4.07;3.67;;;;;;;;;;5066705;28;20097;-69
2022/09/24 09:45:43;;;;;;;4.70;4.30;;;;;;;;;;5063991;28;20885;-69
2022/09/24 09:48:15;;;;;;;7.57;4.40;;;;;;;;;;5080466;28;20047;-68
2022/09/24 09:50:45;;;;;;;6.82;4.70;;;;;;;;;;5064587;28;20131;-69
2022/09/24 09:53:20;;;;;;;4.85;4.55;;;;;;;;;;5066793;28;20036;-70
2022/09/24 09:55:54;;;;;;;6.05;4.97;;;;;;;;;;5072815;28;20128;-70
2022/09/24 09:58:22;;;;;;;5.28;4.78;;;;;;;;;;5069937;28;20048;-68
2022/09/24 10:00:51;;;;;;;5.97;4.63;;;;;;;;;;5074637;28;20048;-69
2022/09/24 10:03:27;;;;;;;4.78;4.40;;;;;;;;;;5067459;28;20847;-70
2022/09/24 10:05:55;;;;;;;5.15;4.65;;;;;;;;;;5077130;28;20404;-68
2022/09/24 10:08:24;;;;;;;5.18;4.68;;;;;;;;;;5051143;28;20710;-69
2022/09/24 10:10:54;;;;;;;5.28;4.75;;;;;;;;;;5073702;28;20032;-69
2022/09/24 10:13:21;;;;;;;5.20;4.70;;;;;;;;;;5047452;28;20049;-68
2022/09/24 10:15:50;;;;;;;8.25;7.35;;;;;;;;;;5072535;28;20040;-70
2022/09/24 10:18:24;;;;;;;14.70;13.10;;;;;;;;;;5067007;28;20045;-70
2022/09/24 10:20:53;;;;;;;10.15;8.48;;;;;;;;;;5080520;28;20055;-70
2022/09/24 10:23:23;;;;;;;6.32;5.45;;;;;;;;;;5065940;28;20091;-70
2022/09/24 10:25:52;;;;;;;5.20;4.60;;;;;;;;;;5076519;28;20044;-69
2022/09/24 10:31:11;;;;;;;8.25;7.22;;;;;;;;;;5076485;28;20063;-69
2022/09/24 10:33:39;;;;;;;7.70;6.22;;;;;;;;;;5075950;28;20094;-69
2022/09/24 10:36:12;;;;;;;6.85;4.75;;;;;;;;;;5047697;28;20075;-69
2022/09/24 10:38:40;;;;;;;6.03;5.43;;;;;;;;;;5070080;28;20048;-69
2022/09/24 10:41:25;;;;;;;4.97;4.60;;;;;;;;;;5062070;28;20064;-69
2022/09/24 10:43:54;;;;;;;7.28;6.57;;;;;;;;;;5060355;28;20419;-68
2022/09/24 10:46:32;;;;;;;5.90;4.97;;;;;;;;;;5070531;28;20102;-69
2022/09/24 10:49:04;;;;;;;9.90;5.03;;;;;;;;;;5068789;28;20032;-68
2022/09/24 10:51:48;;;;;;;5.20;4.70;;;;;;;;;;5061864;28;20039;-70
2022/09/24 10:54:36;;;;;;;6.40;4.80;;;;;;;;;;5071051;28;20056;-68
2022/09/24 10:57:12;;;;;;;5.13;4.63;;;;;;;;;;5069658;28;20044;-69
2022/09/24 10:59:56;;;;;;;5.65;4.80;;;;;;;;;;5050390;28;20045;-68
2022/09/24 11:02:24;;;;;;;5.18;4.57;;;;;;;;;;5044502;28;20135;-69
2022/09/24 11:04:57;;;;;;;6.30;4.07;;;;;;;;;;5044195;28;20494;-69
2022/09/24 11:07:31;;;;;;;4.97;4.32;;;;;;;;;;5061503;28;20113;-69
2022/09/24 11:10:05;;;;;;;4.47;4.07;;;;;;;;;;5067029;28;20127;-68
2022/09/24 11:12:45;;;;;;;9.10;8.25;;;;;;;;;;5077015;28;20377;-69
2022/09/24 11:15:45;;;;;;;7.10;4.70;;;;;;;;;;5075966;28;20040;-69
2022/09/24 11:18:25;;;;;;;5.75;4.28;;;;;;;;;;5001455;28;20068;-68
2022/09/24 11:21:05;;;;;;;5.35;4.95;;;;;;;;;;5074230;28;20467;-69
2022/09/24 11:23:46;;;;;;;4.95;4.57;;;;;;;;;;5038866;28;20224;-68
2022/09/24 11:26:32;;;;;;;5.38;4.90;;;;;;;;;;5049327;28;20045;-68
2022/09/24 11:29:23;;;;;;;5.10;4.60;;;;;;;;;;5055099;28;20141;-69
2022/09/24 11:31:58;;;;;;;5.32;4.80;;;;;;;;;;5077250;28;20041;-69
2022/09/24 11:34:44;;;;;;;4.82;4.30;;;;;;;;;;5048567;28;20036;-68
2022/09/24 11:37:38;;;;;;;4.80;4.30;;;;;;;;;;5072510;28;20072;-70
2022/09/24 11:40:14;;;;;;;6.03;4.40;;;;;;;;;;5055685;28;20032;-70
2022/09/24 11:42:55;;;;;;;6.13;4.13;;;;;;;;;;5071113;28;20405;-67
2022/09/24 11:45:46;;;;;;;5.53;4.32;;;;;;;;;;5053819;28;21278;-71
2022/09/24 11:48:32;;;;;;;4.95;3.80;;;;;;;;;;5045728;28;20597;-69
2022/09/24 11:51:03;;;;;;;6.68;4.13;;;;;;;;;;5051001;28;20499;-69
2022/09/24 11:53:40;;;;;;;4.32;4.03;;;;;;;;;;5086445;28;20050;-69
2022/09/24 11:56:12;;;;;;;4.72;4.32;;;;;;;;;;5071288;28;20047;-69
2022/09/24 11:58:47;;;;;;;7.65;6.50;;;;;;;;;;5079365;28;20078;-69
2022/09/24 12:01:20;;;;;;;11.45;10.30;;;;;;;;;;5063830;28;20036;-69
2022/09/24 12:03:59;;;;;;;6.82;5.38;;;;;;;;;;5071206;28;20044;-68
2022/09/24 12:06:30;;;;;;;5.35;4.50;;;;;;;;;;5060813;28;20044;-67
2022/09/24 12:09:07;;;;;;;5.65;4.60;;;;;;;;;;5076746;28;20047;-68
2022/09/24 12:11:42;;;;;;;6.00;4.80;;;;;;;;;;5085677;28;20257;-68
2022/09/24 12:14:13;;;;;;;5.35;4.85;;;;;;;;;;5084185;28;20052;-68
2022/09/24 12:16:43;;;;;;;;;;;;;;;;;;5080911;28;20183;-68
2022/09/24 12:19:18;;;;;;;4.60;4.20;;;;;;;;;;5082131;28;19931;-68
2022/09/24 12:21:47;;;;;;;6.00;4.57;;;;;;;;;;5083576;28;20541;-67
2022/09/24 12:24:34;;;;;;;5.20;4.43;;;;;;;;;;5068513;28;20422;-68
2022/09/24 12:27:10;;;;;;;5.07;4.18;;;;;;;;;;5078130;28;20036;-68
2022/09/24 12:32:56;;;;;;;;;;;;;;;;;;5053163;28;20047;-68
2022/09/24 12:35:33;;;;;;;5.35;4.80;;;;;;;;;;5054562;28;20099;-68
2022/09/24 12:38:16;;;;;;;4.63;4.20;;;;;;;;;;5075124;28;20441;-67
2022/09/24 12:41:02;;;;;;;5.13;4.50;;;;;;;;;;5085856;28;20046;-68
2022/09/24 12:43:44;;;;;;;4.07;3.63;;;;;;;;;;5077263;28;20079;-68
2022/09/24 12:46:16;;;;;;;7.35;4.82;;;;;;;;;;5067612;28;20510;-69
2022/09/24 12:48:44;;;;;;;;;;;;;;;;;;5076353;28;20579;-69
2022/09/24 12:51:13;;;;;;;7.65;4.93;;;;;;;;;;5063933;28;20200;-68
2022/09/24 12:53:55;;;;;;;9.23;4.32;;;;;;;;;;5064093;28;20040;-69
2022/09/24 12:56:28;;;;;;;5.22;4.72;;;;;;;;;;5064178;28;20178;-67
2022/09/24 12:59:02;;;;;;;5.22;4.72;;;;;;;;;;5036872;28;20075;-69
2022/09/24 13:01:35;;;;;;;7.03;5.00;;;;;;;;;;5077159;28;20131;-69
2022/09/24 13:04:23;;;;;;;5.20;4.78;;;;;;;;;;5056791;28;20055;-66
2022/09/24 13:06:58;;;;;;;5.57;5.10;;;;;;;;;;5049217;28;20032;-69
2022/09/24 13:09:48;;;;;;;5.60;5.10;;;;;;;;;;5020969;28;20055;-68
2022/09/24 13:12:21;;;;;;;5.20;4.63;;;;;;;;;;4994835;28;20431;-69
2022/09/24 13:15:01;;;;;;;8.50;5.38;;;;;;;;;;5008071;28;20064;-67
2022/09/24 13:17:37;;;;;;;5.25;4.75;;;;;;;;;;5011681;28;20508;-68
2022/09/24 13:20:20;;;;;;;5.20;4.70;;;;;;;;;;5009885;28;20073;-70
2022/09/24 13:22:57;;;;;;;5.83;5.00;;;;;;;;;;5010658;28;20481;-70
2022/09/24 13:25:30;;;;;;;7.07;4.90;;;;;;;;;;5007572;28;20404;-68
2022/09/24 13:28:02;;;;;;;6.15;5.05;;;;;;;;;;5005382;28;20458;-71
2022/09/24 13:30:34;;;;;;;6.10;5.18;;;;;;;;;;5003301;28;20083;-68
2022/09/24 13:33:09;;;;;;;7.65;5.40;;;;;;;;;;4987287;28;20488;-68
2022/09/24 13:35:42;;;;;;;9.25;4.57;;;;;;;;;;5032786;28;20042;-67
2022/09/24 13:38:28;;;;;;;6.15;5.65;;;;;;;;;;5022430;28;20698;-68
2022/09/24 13:41:06;;;;;;;6.45;5.85;;;;;;;;;;5012753;28;20051;-69
2022/09/24 13:44:00;;;;;;;5.20;4.70;;;;;;;;;;5022789;28;20047;-69
2022/09/24 13:46:35;;;;;;;6.45;4.97;;;;;;;;;;5003813;28;20047;-68
2022/09/24 13:49:12;;;;;;;7.82;5.07;;;;;;;;;;5009843;28;20047;-69
2022/09/24 13:51:40;;;;;;;5.90;5.40;;;;;;;;;;5018563;28;20483;-69
2022/09/24 13:54:10;;;;;;;5.75;5.15;;;;;;;;;;5022599;28;20409;-70
2022/09/24 13:56:38;;;;;;;6.63;5.03;;;;;;;;;;5016271;28;20057;-69
2022/09/24 13:59:10;;;;;;;31.30;23.08;;;;;;;;;;5037676;28;20141;-70
2022/09/24 14:01:45;;;;;;;21.75;19.05;;;;;;;;;;5014863;28;20120;-68
2022/09/24 14:04:22;;;;;;;11.23;9.57;;;;;;;;;;5000849;28;20041;-68
2022/09/24 14:06:51;;;;;;;6.25;5.65;;;;;;;;;;5033271;28;20037;-68
2022/09/24 14:09:21;;;;;;;6.72;5.65;;;;;;;;;;5010092;28;20034;-67
2022/09/24 14:11:51;;;;;;;7.55;6.60;;;;;;;;;;5020655;28;20056;-68
2022/09/24 14:14:21;;;;;;;7.55;6.75;;;;;;;;;;5036782;28;20049;-69
2022/09/24 14:16:48;;;;;;;11.13;7.50;;;;;;;;;;5021317;28;20046;-68
2022/09/24 14:19:16;;;;;;;7.57;6.65;;;;;;;;;;5034323;28;20045;-68
2022/09/24 14:21:50;;;;;;;6.75;6.07;;;;;;;;;;5029405;28;20037;-68
2022/09/24 14:24:26;;;;;;;7.78;6.97;;;;;;;;;;5003142;28;20107;-67
2022/09/24 14:26:56;;;;;;;9.45;6.85;;;;;;;;;;5029540;28;20090;-68
2022/09/24 14:29:24;;;;;;;9.25;7.47;;;;;;;;;;5036149;28;20042;-68
2022/09/24 14:31:55;;;;;;;8.85;6.32;;;;;;;;;;5027174;28;20041;-69
2022/09/24 14:34:22;;;;;;;7.00;5.82;;;;;;;;;;4995944;28;20508;-68
2022/09/24 14:36:50;;;;;;;7.43;6.20;;;;;;;;;;5024341;28;20110;-68
2022/09/24 14:39:18;;;;;;;10.70;6.28;;;;;;;;;;5009217;28;20080;-68
2022/09/24 14:41:45;;;;;;;7.53;5.78;;;;;;;;;;5029987;28;20166;-69
2022/09/24 14:44:22;;;;;;;10.52;5.97;;;;;;;;;;5026962;28;20504;-68
2022/09/24 14:46:51;;;;;;;6.38;5.78;;;;;;;;;;5027268;28;20041;-68
2022/09/24 14:49:23;;;;;;;7.78;6.30;;;;;;;;;;5026651;28;20041;-68
2022/09/24 14:52:00;;;;;;;8.35;6.10;;;;;;;;;;5023388;28;20044;-68
2022/09/24 14:54:36;;;;;;;6.75;6.10;;;;;;;;;;5038946;28;20057;-67
2022/09/24 14:57:18;;;;;;;7.10;6.40;;;;;;;;;;5039630;28;20534;-68
2022/09/24 14:59:46;;;;;;;18.95;17.15;;;;;;;;;;5024279;28;20510;-68
2022/09/24 15:02:32;;;;;;;16.25;14.65;;;;;;;;;;5043899;28;20053;-69
2022/09/24 15:05:02;;;;;;;15.15;11.25;;;;;;;;;;5010195;28;20047;-69
2022/09/24 15:07:33;;;;;;;;;;;;;;;;;;5033906;28;20073;-68
2022/09/24 15:10:02;;;;;;;9.82;8.07;;;;;;;;;;5042077;28;19925;-69
2022/09/24 15:12:30;;;;;;;6.38;5.78;;;;;;;;;;5025353;28;20045;-68
2022/09/24 15:14:59;;;;;;;6.10;5.47;;;;;;;;;;5013941;28;20060;-68
2022/09/24 15:17:31;;;;;;;8.52;6.20;;;;;;;;;;5030934;28;20099;-69
2022/09/24 15:19:59;;;;;;;7.65;6.53;;;;;;;;;;5043531;28;20722;-68
2022/09/24 15:22:28;;;;;;;9.98;7.53;;;;;;;;;;4997128;28;20055;-68
2022/09/24 15:24:57;;;;;;;9.65;7.75;;;;;;;;;;5039766;28;20045;-70
2022/09/24 15:27:33;;;;;;;10.00;7.15;;;;;;;;;;5024876;28;20041;-68